createdAt,value
2022-12-03T00:01:03.727Z,93652.66
2022-12-03T00:02:35.961Z,93650.31
2022-12-03T00:04:07.846Z,93648.69
2022-12-03T00:05:41.903Z,93656.94
2022-12-03T00:07:21.048Z,93665.72
2022-12-03T00:08:52.735Z,93670.25
2022-12-03T00:10:24.354Z,93667.34
2022-12-03T00:11:55.914Z,93670.25
2022-12-03T00:13:27.444Z,93670.78
2022-12-03T00:14:59.190Z,93674.50
2022-12-03T00:16:30.894Z,93672.91
2022-12-03T00:18:02.673Z,93675.31
2022-12-03T00:19:34.392Z,93685.72
2022-12-03T00:21:06.401Z,93673.72
2022-12-03T00:22:38.019Z,93676.13
2022-12-03T00:24:09.593Z,93681.13
2022-12-03T00:25:41.293Z,93676.06
2022-12-03T00:27:13.449Z,93680.81
2022-12-03T00:28:45.386Z,93683.00
2022-12-03T00:30:17.213Z,93682.75
2022-12-03T00:31:49.028Z,93678.47
2022-12-03T00:33:21.375Z,93685.41
2022-12-03T00:34:53.279Z,93686.22
2022-12-03T00:36:25.074Z,93689.13
2022-12-03T00:37:56.613Z,93689.13
2022-12-03T00:39:28.841Z,93687.22
2022-12-03T00:41:01.641Z,93690.63
2022-12-03T00:42:33.440Z,93692.72
2022-12-03T00:44:05.280Z,93699.63
2022-12-03T00:45:36.893Z,93694.78
2022-12-03T00:47:08.573Z,93702.19
2022-12-03T00:48:40.368Z,93707.53
2022-12-03T00:50:12.121Z,93705.34
2022-12-03T00:51:44.190Z,93708.53
2022-12-03T00:53:15.735Z,93717.28
2022-12-03T00:54:47.240Z,93716.81
2022-12-03T00:56:21.279Z,93720.50
2022-12-03T00:57:52.954Z,93716.50
2022-12-03T00:59:24.554Z,93723.94
2022-12-03T01:00:56.080Z,93719.09
2022-12-03T01:02:27.819Z,93718.78
2022-12-03T01:04:00.016Z,93720.25
2022-12-03T01:05:32.072Z,93716.75
2022-12-03T01:07:03.671Z,93724.16
2022-12-03T01:08:35.743Z,93725.78
2022-12-03T01:10:08.378Z,93728.97
2022-12-03T01:11:41.333Z,93737.03
2022-12-03T01:13:13.124Z,93738.41
2022-12-03T01:14:44.644Z,93727.75
2022-12-03T01:16:16.261Z,93737.34
2022-12-03T01:17:48.130Z,93733.66
2022-12-03T01:19:19.804Z,93731.50
2022-12-03T01:20:51.771Z,93729.66
2022-12-03T01:22:23.470Z,93734.75
2022-12-03T01:23:56.150Z,93728.13
2022-12-03T01:25:28.179Z,93720.94
2022-12-03T01:27:01.240Z,93719.66
2022-12-03T01:28:33.231Z,93711.69
2022-12-03T01:30:05.494Z,93712.47
2022-12-03T01:31:55.777Z,93710.88
2022-12-03T01:33:27.457Z,93703.34
2022-12-03T01:34:59.159Z,93701.16
2022-12-03T01:36:30.682Z,93704.31
2022-12-03T01:38:02.372Z,93704.78
2022-12-03T01:39:34.018Z,93707.22
2022-12-03T01:41:11.449Z,93706.72
2022-12-03T01:42:43.564Z,93708.00
2022-12-03T01:44:19.317Z,93693.34
2022-12-03T01:45:51.278Z,93704.78
2022-12-03T01:47:24.813Z,93713.00
2022-12-03T01:48:56.544Z,93709.56
2022-12-03T01:50:30.273Z,93709.31
2022-12-03T01:52:02.002Z,93707.69
2022-12-03T01:53:33.700Z,93712.75
2022-12-03T01:55:06.522Z,93712.53
2022-12-03T01:56:38.147Z,93714.13
2022-12-03T01:58:10.486Z,93708.34
2022-12-03T01:59:42.702Z,93715.56
2022-12-03T02:01:15.336Z,93710.78
2022-12-03T02:02:47.380Z,93719.03
2022-12-03T02:04:19.033Z,93705.19
2022-12-03T02:05:51.452Z,93704.63
2022-12-03T02:07:26.788Z,93707.22
2022-12-03T02:09:00.430Z,93713.56
2022-12-03T02:10:32.776Z,93714.63
2022-12-03T02:12:04.553Z,93714.09
2022-12-03T02:13:36.206Z,93705.53
2022-12-03T02:15:08.085Z,93705.78
2022-12-03T02:16:39.816Z,93704.16
2022-12-03T02:18:11.918Z,93707.63
2022-12-03T02:19:43.744Z,93713.53
2022-12-03T02:21:15.784Z,93709.81
2022-12-03T02:22:56.940Z,93708.19
2022-12-03T02:25:10.501Z,93710.34
2022-12-03T02:26:47.319Z,93718.31
2022-12-03T02:28:23.835Z,93714.94
2022-12-03T02:35:27.650Z,93712.72
2022-12-03T02:37:00.226Z,93714.81
2022-12-03T02:38:31.985Z,93707.88
2022-12-03T02:40:04.796Z,93714.00
2022-12-03T02:41:55.079Z,93713.53
2022-12-03T02:43:26.667Z,93709.81
2022-12-03T02:45:03.599Z,93711.44
2022-12-03T02:46:36.755Z,93709.88
2022-12-03T02:48:09.374Z,93701.06
2022-12-03T02:49:41.530Z,93705.31
2022-12-03T02:51:13.301Z,93712.88
2022-12-03T02:52:45.005Z,93708.56
2022-12-03T02:54:16.677Z,93711.13
2022-12-03T02:55:48.901Z,93710.59
2022-12-03T02:57:20.467Z,93710.59
2022-12-03T02:58:52.576Z,93709.84
2022-12-03T03:00:24.234Z,93709.13
2022-12-03T03:01:56.415Z,93714.72
2022-12-03T03:03:28.672Z,93707.56
2022-12-03T03:05:00.563Z,93709.16
2022-12-03T03:06:32.776Z,93712.41
2022-12-03T03:08:05.103Z,93710.78
2022-12-03T03:09:36.718Z,93704.66
2022-12-03T03:11:08.235Z,93707.03
2022-12-03T03:12:39.948Z,93696.88
2022-12-03T03:14:11.489Z,93695.50
2022-12-03T03:15:43.093Z,93693.09
2022-12-03T03:17:14.706Z,93691.78
2022-12-03T03:18:46.238Z,93685.44
2022-12-03T03:20:18.023Z,93678.97
2022-12-03T03:21:49.918Z,93678.13
2022-12-03T03:23:22.136Z,93690.84
2022-12-03T03:24:53.941Z,93690.06
2022-12-03T03:26:25.976Z,93690.84
2022-12-03T03:27:57.468Z,93694.56
2022-12-03T03:29:29.020Z,93695.03
2022-12-03T03:31:04.309Z,93697.69
2022-12-03T03:32:35.957Z,93699.00
2022-12-03T03:34:07.840Z,93700.06
2022-12-03T03:35:40.973Z,93698.38
2022-12-03T03:37:12.671Z,93699.16
2022-12-03T03:38:44.323Z,93686.44
2022-12-03T03:40:15.886Z,93684.34
2022-12-03T03:41:47.869Z,93693.66
2022-12-03T03:43:22.775Z,93686.81
2022-12-03T03:44:54.653Z,93687.63
2022-12-03T03:46:26.950Z,93695.41
2022-12-03T03:47:58.528Z,93693.56
2022-12-03T03:49:30.735Z,93701.31
2022-12-03T03:51:03.908Z,93711.38
2022-12-03T03:52:39.544Z,93713.16
2022-12-03T03:54:15.062Z,93714.53
2022-12-03T03:55:50.834Z,93708.72
2022-12-03T03:57:27.025Z,93711.66
2022-12-03T03:59:02.483Z,93712.94
2022-12-03T04:00:38.301Z,93700.91
2022-12-03T04:02:21.067Z,93713.75
2022-12-03T04:04:00.496Z,93709.28
2022-12-03T04:05:36.184Z,93717.56
2022-12-03T04:07:12.721Z,93714.44
2022-12-03T04:08:48.403Z,93711.78
2022-12-03T04:10:46.803Z,93708.00
2022-12-03T04:12:39.390Z,93724.50
2022-12-03T04:14:36.405Z,93714.13
2022-12-03T04:16:13.410Z,93716.53
2022-12-03T04:18:08.921Z,93717.09
2022-12-03T04:19:44.016Z,93714.19
2022-12-03T04:21:49.339Z,93714.50
2022-12-03T04:23:30.612Z,93714.25
2022-12-03T04:25:24.270Z,93723.84
2022-12-03T04:27:21.581Z,93726.75
2022-12-03T04:29:02.300Z,93726.75
2022-12-03T04:30:38.601Z,93732.06
2022-12-03T04:32:32.434Z,93724.56
2022-12-03T04:34:24.959Z,93718.38
2022-12-03T04:45:33.206Z,93719.06
2022-12-03T04:47:07.456Z,93718.00
2022-12-03T04:48:39.140Z,93718.81
2022-12-03T04:50:10.841Z,93716.44
2022-12-03T04:51:42.440Z,93712.81
2022-12-03T04:53:13.973Z,93709.69
2022-12-03T04:54:45.651Z,93713.94
2022-12-03T04:56:17.738Z,93714.50
2022-12-03T04:57:49.542Z,93723.59
2022-12-03T04:59:21.263Z,93729.78
2022-12-03T05:00:52.957Z,93719.47
2022-12-03T05:02:24.805Z,93719.78
2022-12-03T05:03:56.432Z,93713.09
2022-12-03T05:05:28.058Z,93715.75
2022-12-03T05:06:59.660Z,93714.94
2022-12-03T05:08:31.273Z,93723.16
2022-12-03T05:10:02.806Z,93712.28
2022-12-03T05:11:34.502Z,93721.31
2022-12-03T05:13:06.082Z,93722.34
2022-12-03T05:14:37.798Z,93720.22
2022-12-03T05:16:09.421Z,93722.31
2022-12-03T05:17:41.683Z,93726.00
2022-12-03T05:19:13.344Z,93723.66
2022-12-03T05:20:51.473Z,93722.91
2022-12-03T05:22:25.086Z,93719.53
2022-12-03T05:23:56.601Z,93719.03
2022-12-03T05:25:28.413Z,93726.75
2022-12-03T05:27:00.554Z,93722.81
2022-12-03T05:28:32.101Z,93731.28
2022-12-03T05:30:03.795Z,93731.03
2022-12-03T05:31:35.392Z,93733.94
2022-12-03T05:33:06.958Z,93731.78
2022-12-03T05:34:38.629Z,93735.50
2022-12-03T05:36:10.412Z,93746.38
2022-12-03T05:37:42.111Z,93745.09
2022-12-03T05:39:13.677Z,93746.66
2022-12-03T05:40:45.437Z,93753.59
2022-12-03T05:42:35.834Z,93743.53
2022-12-03T05:44:07.513Z,93747.81
2022-12-03T05:45:39.883Z,93747.47
2022-12-03T05:47:11.675Z,93747.75
2022-12-03T05:48:43.596Z,93745.56
2022-12-03T05:50:15.518Z,93747.44
2022-12-03T05:51:46.983Z,93742.34
2022-12-03T05:53:18.569Z,93738.88
2022-12-03T05:54:50.215Z,93745.00
2022-12-03T05:56:21.789Z,93745.81
2022-12-03T05:57:53.602Z,93744.53
2022-12-03T05:59:25.159Z,93745.56
2022-12-03T06:00:56.788Z,93753.88
2022-12-03T06:02:28.529Z,93750.94
2022-12-03T06:04:00.329Z,93748.81
2022-12-03T06:05:31.995Z,93748.22
2022-12-03T06:07:03.561Z,93754.59
2022-12-03T06:08:35.219Z,93755.97
2022-12-03T06:10:07.370Z,93757.31
2022-12-03T06:11:40.540Z,93763.19
2022-12-03T06:13:11.996Z,93761.59
2022-12-03T06:14:43.617Z,93770.38
2022-12-03T06:16:15.220Z,93768.53
2022-12-03T06:17:46.862Z,93771.19
2022-12-03T06:19:18.670Z,93775.22
2022-12-03T06:20:50.279Z,93769.09
2022-12-03T06:22:22.249Z,93765.38
2022-12-03T06:23:54.137Z,93769.09
2022-12-03T06:25:25.790Z,93767.47
2022-12-03T06:26:57.408Z,93771.50
2022-12-03T06:28:29.007Z,93768.13
2022-12-03T06:30:00.619Z,93769.22
2022-12-03T06:31:32.349Z,93766.31
2022-12-03T06:33:04.322Z,93770.34
2022-12-03T06:34:35.887Z,93769.06
2022-12-03T06:36:07.525Z,93769.59
2022-12-03T06:37:39.103Z,93773.31
2022-12-03T06:39:13.399Z,93776.72
2022-12-03T06:40:45.452Z,93771.97
2022-12-03T06:42:17.209Z,93772.25
2022-12-03T06:43:49.042Z,93771.53
2022-12-03T06:45:20.629Z,93771.53
2022-12-03T06:46:52.291Z,93774.19
2022-12-03T06:48:24.063Z,93780.00
2022-12-03T06:49:55.623Z,93779.13
2022-12-03T06:51:27.166Z,93774.63
2022-12-03T06:52:58.653Z,93782.13
2022-12-03T06:54:30.245Z,93781.03
2022-12-03T06:56:01.789Z,93783.69
2022-12-03T06:57:33.642Z,93784.03
2022-12-03T06:59:05.236Z,93784.59
2022-12-03T07:00:36.756Z,93782.97
2022-12-03T07:02:23.394Z,93792.31
2022-12-03T07:03:58.322Z,93796.34
2022-12-03T07:05:34.529Z,93793.44
2022-12-03T07:12:35.270Z,93805.31
2022-12-03T07:14:08.384Z,93800.56
2022-12-03T07:15:39.956Z,93801.69
2022-12-03T07:17:11.490Z,93796.16
2022-12-03T07:18:43.028Z,93803.94
2022-12-03T07:20:14.596Z,93804.00
2022-12-03T07:21:46.129Z,93799.81
2022-12-03T07:23:17.826Z,93806.47
2022-12-03T07:24:49.488Z,93810.53
2022-12-03T07:26:25.255Z,93812.72
2022-12-03T07:28:00.759Z,93810.59
2022-12-03T07:29:36.422Z,93813.56
2022-12-03T07:36:20.386Z,93812.31
2022-12-03T07:37:52.511Z,93811.03
2022-12-03T07:39:30.836Z,93806.53
2022-12-03T07:41:07.422Z,93809.00
2022-12-03T07:46:35.020Z,93812.47
2022-12-03T07:48:06.650Z,93813.53
2022-12-03T07:49:38.202Z,93823.13
2022-12-03T07:51:12.916Z,93815.13
2022-12-03T07:52:46.870Z,93822.38
2022-12-03T07:54:18.466Z,93817.13
2022-12-03T07:55:50.037Z,93810.69
2022-12-03T07:57:21.527Z,93826.75
2022-12-03T07:58:53.318Z,93813.72
2022-12-03T08:00:24.925Z,93819.06
2022-12-03T08:01:56.648Z,93809.75
2022-12-03T08:03:28.323Z,93819.16
2022-12-03T08:04:59.845Z,93821.34
2022-12-03T08:06:31.451Z,93818.78
2022-12-03T08:08:02.961Z,93819.06
2022-12-03T08:09:34.527Z,93823.63
2022-12-03T08:11:06.263Z,93821.75
2022-12-03T08:12:41.153Z,93826.78
2022-12-03T08:14:19.184Z,93833.72
2022-12-03T08:15:50.707Z,93834.50
2022-12-03T08:17:22.438Z,93831.06
2022-12-03T08:18:55.189Z,93836.69
2022-12-03T08:20:29.071Z,93843.91
2022-12-03T08:22:01.584Z,93838.25
2022-12-03T08:23:33.867Z,93841.47
2022-12-03T08:25:28.248Z,93835.63
2022-12-03T08:27:00.021Z,93844.19
2022-12-03T08:28:32.013Z,93838.06
2022-12-03T08:30:03.905Z,93836.72
2022-12-03T08:31:35.641Z,93837.53
2022-12-03T08:33:13.622Z,93838.59
2022-12-03T08:34:45.316Z,93837.53
2022-12-03T08:38:19.440Z,93838.38
2022-12-03T08:39:55.608Z,93840.25
2022-12-03T08:44:30.359Z,93846.50
2022-12-03T08:46:02.199Z,93843.34
2022-12-03T08:47:37.178Z,93839.38
2022-12-03T08:49:13.759Z,93850.31
2022-12-03T08:50:50.260Z,93841.56
2022-12-03T08:52:26.263Z,93836.78
2022-12-03T08:56:33.582Z,93832.63
2022-12-03T08:58:20.902Z,93838.53
2022-12-03T08:59:58.318Z,93840.94
2022-12-03T09:01:30.140Z,93837.78
2022-12-03T09:03:01.704Z,93831.41
2022-12-03T09:04:36.036Z,93823.97
2022-12-03T09:06:08.050Z,93819.78
2022-12-03T09:07:39.580Z,93820.88
2022-12-03T09:09:11.324Z,93816.91
2022-12-03T09:10:42.894Z,93811.88
2022-12-03T09:12:14.390Z,93813.50
2022-12-03T09:13:46.114Z,93816.19
2022-12-03T09:15:18.088Z,93811.16
2022-12-03T09:16:50.441Z,93806.06
2022-12-03T09:18:22.176Z,93813.53
2022-12-03T09:19:54.542Z,93803.69
2022-12-03T09:21:26.218Z,93808.78
2022-12-03T09:22:58.184Z,93811.41
2022-12-03T09:24:29.941Z,93815.13
2022-12-03T09:26:01.648Z,93816.72
2022-12-03T09:27:33.380Z,93807.34
2022-12-03T09:29:10.462Z,93801.75
2022-12-03T09:30:44.193Z,93802.00
2022-12-03T09:32:18.613Z,93803.91
2022-12-03T09:33:50.720Z,93800.16
2022-12-03T09:35:22.900Z,93800.16
2022-12-03T09:36:54.485Z,93789.22
2022-12-03T09:38:26.153Z,93798.09
2022-12-03T09:39:57.673Z,93795.16
2022-12-03T09:41:29.256Z,93795.44
2022-12-03T09:43:01.065Z,93791.50
2022-12-03T09:44:33.669Z,93801.38
2022-12-03T09:46:10.606Z,93794.16
2022-12-03T09:47:47.803Z,93796.06
2022-12-03T09:56:45.482Z,93787.31
2022-12-03T09:58:18.361Z,93785.47
2022-12-03T09:59:50.136Z,93786.25
2022-12-03T10:01:21.948Z,93780.66
2022-12-03T10:02:57.726Z,93785.72
2022-12-03T10:04:34.009Z,93780.91
2022-12-03T10:06:19.193Z,93779.56
2022-12-03T10:13:14.297Z,93771.53
2022-12-03T10:14:46.211Z,93777.91
2022-12-03T10:16:18.747Z,93777.94
2022-12-03T10:17:51.090Z,93772.06
2022-12-03T10:19:24.155Z,93770.22
2022-12-03T10:20:55.944Z,93767.28
2022-12-03T10:22:27.541Z,93765.66
2022-12-03T10:24:18.161Z,93768.59
2022-12-03T10:25:53.706Z,93776.94
2022-12-03T10:27:30.364Z,93767.53
2022-12-03T10:29:02.008Z,93767.28
2022-12-03T10:30:33.620Z,93762.47
2022-12-03T10:32:06.321Z,93761.69
2022-12-03T10:33:41.963Z,93761.91
2022-12-03T10:35:17.627Z,93759.78
2022-12-03T10:36:51.938Z,93759.25
2022-12-03T10:38:23.925Z,93756.03
2022-12-03T10:40:09.376Z,93766.19
2022-12-03T10:41:41.465Z,93759.22
2022-12-03T10:43:13.033Z,93761.13
2022-12-03T10:45:07.066Z,93757.59
2022-12-03T10:46:43.071Z,93754.41
2022-12-03T10:48:30.740Z,93753.59
2022-12-03T10:52:30.072Z,93755.44
2022-12-03T10:54:01.623Z,93753.28
2022-12-03T10:55:35.638Z,93748.97
2022-12-03T10:57:08.936Z,93754.28
2022-12-03T10:58:40.846Z,93750.53
2022-12-03T11:00:16.457Z,93743.53
2022-12-03T11:01:48.393Z,93744.06
2022-12-03T11:03:24.170Z,93742.75
2022-12-03T11:04:56.154Z,93742.50
2022-12-03T11:06:30.394Z,93741.38
2022-12-03T11:08:02.070Z,93739.75
2022-12-03T11:09:33.714Z,93738.13
2022-12-03T11:11:09.228Z,93739.69
2022-12-03T11:12:44.846Z,93735.84
2022-12-03T11:14:38.541Z,93737.41
2022-12-03T11:21:19.551Z,93730.88
2022-12-03T11:22:55.328Z,93731.16
2022-12-03T11:24:27.020Z,93730.59
2022-12-03T11:25:58.613Z,93734.34
2022-12-03T11:27:31.744Z,93728.78
2022-12-03T11:29:03.467Z,93730.34
2022-12-03T11:30:56.925Z,93729.78
2022-12-03T11:32:44.059Z,93721.94
2022-12-03T11:34:15.646Z,93729.16
2022-12-03T11:36:05.675Z,93722.72
2022-12-03T11:37:37.334Z,93717.81
2022-12-03T11:39:48.584Z,93723.66
2022-12-03T11:41:22.753Z,93723.06
2022-12-03T11:48:02.443Z,93710.84
2022-12-03T11:49:38.087Z,93719.25
2022-12-03T11:51:19.249Z,93716.09
2022-12-03T11:53:06.065Z,93714.44
2022-12-03T11:54:42.463Z,93716.84
2022-12-03T12:01:26.544Z,93711.44
2022-12-03T12:02:58.742Z,93711.72
2022-12-03T12:04:34.549Z,93707.34
2022-12-03T12:06:09.969Z,93702.50
2022-12-03T12:07:41.965Z,93709.22
2022-12-03T12:09:13.676Z,93710.28
2022-12-03T12:10:46.330Z,93711.38
2022-12-03T12:12:36.780Z,93709.56
2022-12-03T12:14:08.407Z,93709.31
2022-12-03T12:15:40.101Z,93710.03
2022-12-03T12:17:30.766Z,93704.41
2022-12-03T12:19:20.753Z,93705.25
2022-12-03T12:20:52.311Z,93695.88
2022-12-03T12:22:26.794Z,93704.97
2022-12-03T12:24:19.245Z,93702.56
2022-12-03T12:25:58.187Z,93709.31
2022-12-03T12:27:47.589Z,93701.88
2022-12-03T12:44:42.146Z,93707.88
2022-12-03T12:46:45.902Z,93700.59
2022-12-03T12:48:14.761Z,93697.63
2022-12-03T12:49:51.603Z,93691.66
2022-12-03T12:51:24.201Z,93688.19
2022-12-03T12:52:58.443Z,93687.09
2022-12-03T12:54:30.084Z,93686.78
2022-12-03T12:56:01.762Z,93684.31
2022-12-03T12:57:33.368Z,93686.97
2022-12-03T12:59:18.015Z,93683.03
2022-12-03T13:00:53.367Z,93686.25
2022-12-03T13:02:34.521Z,93683.56
2022-12-03T13:04:16.457Z,93685.22
2022-12-03T13:05:48.851Z,93681.56
2022-12-03T13:07:20.449Z,93680.66
2022-12-03T13:08:52.056Z,93675.41
2022-12-03T13:10:23.691Z,93678.66
2022-12-03T13:11:59.020Z,93678.66
2022-12-03T13:13:30.565Z,93678.91
2022-12-03T13:15:02.084Z,93671.09
2022-12-03T13:16:33.881Z,93678.88
2022-12-03T13:18:22.423Z,93685.31
2022-12-03T13:20:03.723Z,93676.19
2022-12-03T13:21:39.762Z,93689.34
2022-12-03T13:23:23.623Z,93672.19
2022-12-03T13:25:01.823Z,93687.50
2022-12-03T13:26:40.704Z,93688.13
2022-12-03T13:28:16.947Z,93678.25
2022-12-03T13:29:54.800Z,93684.09
2022-12-03T13:33:51.225Z,93686.06
2022-12-03T13:35:24.123Z,93685.53
2022-12-03T13:38:47.664Z,93691.75
2022-12-03T13:40:21.886Z,93685.06
2022-12-03T13:42:12.166Z,93687.50
2022-12-03T13:43:44.429Z,93680.63
2022-12-03T13:45:16.351Z,93688.94
2022-12-03T13:46:48.066Z,93690.00
2022-12-03T13:48:32.417Z,93696.97
2022-12-03T13:50:07.667Z,93691.34
2022-12-03T13:51:39.286Z,93688.66
2022-12-03T13:53:22.665Z,93693.50
2022-12-03T13:54:55.254Z,93690.81
2022-12-03T13:56:27.518Z,93696.19
2022-12-03T13:57:59.258Z,93695.66
2022-12-03T13:59:30.825Z,93698.06
2022-12-03T14:01:02.651Z,93701.06
2022-12-03T14:02:34.345Z,93691.13
2022-12-03T14:04:05.970Z,93696.50
2022-12-03T14:05:37.520Z,93703.44
2022-12-03T14:07:09.184Z,93703.44
2022-12-03T14:08:40.822Z,93697.56
2022-12-03T14:10:12.631Z,93698.38
2022-12-03T14:12:02.646Z,93701.88
2022-12-03T14:13:34.300Z,93708.09
2022-12-03T14:15:07.036Z,93707.06
2022-12-03T14:16:38.641Z,93709.75
2022-12-03T14:18:10.289Z,93709.00
2022-12-03T14:19:41.859Z,93711.41
2022-12-03T14:21:13.585Z,93714.91
2022-12-03T14:22:45.286Z,93713.88
2022-12-03T14:24:16.883Z,93712.00
2022-12-03T14:25:48.532Z,93706.38
2022-12-03T14:27:20.272Z,93721.63
2022-12-03T14:28:51.891Z,93717.13
2022-12-03T14:30:23.501Z,93718.19
2022-12-03T14:31:55.130Z,93718.72
2022-12-03T14:33:26.872Z,93723.28
2022-12-03T14:34:58.376Z,93725.16
2022-12-03T14:36:30.016Z,93724.13
2022-12-03T14:38:01.549Z,93726.25
2022-12-03T14:39:33.065Z,93728.44
2022-12-03T14:41:04.610Z,93726.00
2022-12-03T14:42:36.649Z,93724.44
2022-12-03T14:44:08.414Z,93726.03
2022-12-03T14:45:40.106Z,93723.91
2022-12-03T14:47:11.865Z,93730.59
2022-12-03T14:48:43.392Z,93731.16
2022-12-03T14:50:14.973Z,93741.06
2022-12-03T14:51:46.596Z,93744.25
2022-12-03T14:53:21.441Z,93737.56
2022-12-03T14:54:56.236Z,93740.53
2022-12-03T14:56:31.812Z,93743.75
2022-12-03T14:58:34.651Z,93741.84
2022-12-03T15:00:10.550Z,93745.34
2022-12-03T15:14:34.601Z,93750.69
2022-12-03T15:16:06.414Z,93754.16
2022-12-03T15:17:38.051Z,93756.03
2022-12-03T15:19:09.662Z,93757.09
2022-12-03T15:20:41.258Z,93754.44
2022-12-03T15:22:12.938Z,93751.69
2022-12-03T15:23:44.479Z,93762.16
2022-12-03T15:25:16.250Z,93753.84
2022-12-03T15:26:47.974Z,93760.78
2022-12-03T15:28:19.512Z,93754.63
2022-12-03T15:29:51.685Z,93756.81
2022-12-03T15:31:23.582Z,93753.03
2022-12-03T15:32:55.169Z,93745.53
2022-12-03T15:34:27.193Z,93747.16
2022-12-03T15:35:58.801Z,93748.75
2022-12-03T15:37:30.545Z,93743.69
2022-12-03T15:39:02.557Z,93750.66
2022-12-03T15:40:34.098Z,93748.22
2022-12-03T15:42:05.633Z,93751.44
2022-12-03T15:43:37.342Z,93745.00
2022-12-03T15:45:13.626Z,93751.44
2022-12-03T15:46:47.065Z,93753.03
2022-12-03T15:48:19.519Z,93756.78
2022-12-03T15:49:52.038Z,93755.94
2022-12-03T15:51:24.330Z,93748.22
2022-12-03T15:52:56.703Z,93751.41
2022-12-03T15:54:29.488Z,93749.00
2022-12-03T15:56:02.205Z,93751.94
2022-12-03T15:57:33.936Z,93754.59
2022-12-03T15:59:06.353Z,93751.13
2022-12-03T16:00:38.580Z,93756.47
2022-12-03T16:02:11.869Z,93752.75
2022-12-03T16:03:44.536Z,93753.50
2022-12-03T16:05:17.248Z,93759.16
2022-12-03T16:06:50.455Z,93756.47
2022-12-03T16:08:22.781Z,93761.28
2022-12-03T16:09:55.994Z,93759.13
2022-12-03T16:11:29.519Z,93761.00
2022-12-03T16:13:02.340Z,93763.13
2022-12-03T16:14:34.952Z,93763.91
2022-12-03T16:16:07.606Z,93773.78
2022-12-03T16:17:40.669Z,93765.72
2022-12-03T16:19:13.887Z,93772.41
2022-12-03T16:20:47.035Z,93774.81
2022-12-03T16:22:20.059Z,93773.44
2022-12-03T16:23:52.741Z,93770.25
2022-12-03T16:25:26.574Z,93765.16
2022-12-03T16:26:58.650Z,93769.44
2022-12-03T16:28:31.874Z,93769.94
2022-12-03T16:30:07.652Z,93774.78
2022-12-03T16:31:40.344Z,93780.38
2022-12-03T16:33:13.720Z,93769.13
2022-12-03T16:34:47.184Z,93774.22
2022-12-03T16:36:21.148Z,93782.19
2022-12-03T16:37:53.934Z,93775.50
2022-12-03T16:39:26.600Z,93784.84
2022-12-03T16:40:59.062Z,93784.81
2022-12-03T16:42:31.761Z,93785.63
2022-12-03T16:44:04.736Z,93785.63
2022-12-03T16:45:46.855Z,93790.41
2022-12-03T16:47:19.401Z,93790.41
2022-12-03T16:48:57.501Z,93791.72
2022-12-03T16:50:30.801Z,93794.38
2022-12-03T16:52:03.810Z,93795.44
2022-12-03T16:53:36.990Z,93798.13
2022-12-03T16:55:09.719Z,93798.13
2022-12-03T16:56:44.355Z,93798.66
2022-12-03T16:58:19.365Z,93801.09
2022-12-03T16:59:51.644Z,93795.69
2022-12-03T17:01:24.739Z,93801.28
2022-12-03T17:02:56.948Z,93792.47
2022-12-03T17:04:29.586Z,93806.81
2022-12-03T17:06:02.338Z,93798.50
2022-12-03T17:07:34.485Z,93804.59
2022-12-03T17:09:07.369Z,93802.72
2022-12-03T17:10:39.157Z,93800.56
2022-12-03T17:12:11.659Z,93798.13
2022-12-03T17:13:43.247Z,93804.53
2022-12-03T17:15:14.786Z,93806.13
2022-12-03T17:16:46.526Z,93809.84
2022-12-03T17:18:18.434Z,93800.78
2022-12-03T17:19:50.734Z,93801.06
2022-12-03T17:21:22.341Z,93802.91
2022-12-03T17:22:53.900Z,93801.88
2022-12-03T17:24:25.579Z,93799.19
2022-12-03T17:25:57.221Z,93797.59
2022-12-03T17:27:30.013Z,93800.47
2022-12-03T17:29:01.639Z,93800.72
2022-12-03T17:30:33.212Z,93798.00
2022-12-03T17:32:05.108Z,93800.91
2022-12-03T17:33:36.827Z,93800.09
2022-12-03T17:35:08.868Z,93798.50
2022-12-03T17:36:40.582Z,93795.25
2022-12-03T17:38:12.194Z,93797.91
2022-12-03T17:39:43.859Z,93796.53
2022-12-03T17:41:15.684Z,93792.97
2022-12-03T17:42:47.239Z,93795.31
2022-12-03T17:44:21.137Z,93799.78
2022-12-03T17:45:53.076Z,93796.03
2022-12-03T17:47:24.697Z,93796.03
2022-12-03T17:48:57.139Z,93799.75
2022-12-03T17:50:28.920Z,93792.81
2022-12-03T17:52:00.528Z,93802.19
2022-12-03T17:53:32.182Z,93796.59
2022-12-03T17:55:15.685Z,93805.13
2022-12-03T17:56:53.143Z,93794.19
2022-12-03T17:58:24.837Z,93793.63
2022-12-03T17:59:57.447Z,93793.88
2022-12-03T18:01:29.609Z,93794.91
2022-12-03T18:03:01.129Z,93794.88
2022-12-03T18:04:32.925Z,93793.81
2022-12-03T18:06:04.608Z,93797.03
2022-12-03T18:07:36.269Z,93795.97
2022-12-03T18:09:08.021Z,93798.94
2022-12-03T18:10:39.648Z,93800.31
2022-12-03T18:12:11.201Z,93795.78
2022-12-03T18:13:42.848Z,93803.00
2022-12-03T18:15:14.549Z,93800.91
2022-12-03T18:16:46.084Z,93802.25
2022-12-03T18:18:17.637Z,93796.41
2022-12-03T18:19:49.392Z,93799.88
2022-12-03T18:21:21.201Z,93807.88
2022-12-03T18:22:52.822Z,93807.06
2022-12-03T18:24:24.471Z,93814.22
2022-12-03T18:25:56.483Z,93809.94
2022-12-03T18:27:28.271Z,93820.59
2022-12-03T18:28:59.955Z,93813.03
2022-12-03T18:30:31.613Z,93816.47
2022-12-03T18:32:03.423Z,93820.19
2022-12-03T18:33:35.258Z,93814.53
2022-12-03T18:35:07.136Z,93815.59
2022-12-03T18:36:38.634Z,93817.16
2022-12-03T18:38:11.381Z,93809.84
2022-12-03T18:39:43.312Z,93808.78
2022-12-03T18:41:14.953Z,93814.13
2022-12-03T18:42:46.749Z,93818.94
2022-12-03T18:44:18.519Z,93813.13
2022-12-03T18:45:50.447Z,93813.94
2022-12-03T18:47:23.301Z,93814.44
2022-12-03T18:48:55.031Z,93811.19
2022-12-03T18:50:26.758Z,93816.53
2022-12-03T18:51:59.732Z,93813.88
2022-12-03T18:53:31.450Z,93812.25
2022-12-03T18:55:03.101Z,93810.88
2022-12-03T18:56:34.629Z,93811.97
2022-12-03T18:58:06.222Z,93823.97
2022-12-03T18:59:37.998Z,93822.34
2022-12-03T19:01:29.912Z,93820.47
2022-12-03T19:03:03.938Z,93817.78
2022-12-03T19:04:35.905Z,93822.09
2022-12-03T19:06:16.915Z,93827.25
2022-12-03T19:07:55.629Z,93827.81
2022-12-03T19:09:28.029Z,93834.69
2022-12-03T19:10:59.913Z,93825.81
2022-12-03T19:12:32.611Z,93828.72
2022-12-03T19:14:09.407Z,93839.91
2022-12-03T19:15:45.087Z,93830.78
2022-12-03T19:17:19.103Z,93840.50
2022-12-03T19:18:57.453Z,93832.19
2022-12-03T19:20:33.166Z,93834.00
2022-12-03T19:22:10.224Z,93826.50
2022-12-03T19:24:04.128Z,93825.22
2022-12-03T19:25:40.022Z,93819.88
2022-12-03T19:27:11.632Z,93825.69
2022-12-03T19:28:43.326Z,93819.56
2022-12-03T19:30:14.932Z,93827.00
2022-12-03T19:31:46.653Z,93832.03
2022-12-03T19:33:18.510Z,93831.22
2022-12-03T19:34:50.174Z,93830.47
2022-12-03T19:36:23.124Z,93824.41
2022-12-03T19:37:55.886Z,93828.19
2022-12-03T19:39:27.440Z,93825.31
2022-12-03T19:40:58.978Z,93823.53
2022-12-03T19:42:31.687Z,93829.19
2022-12-03T19:44:07.840Z,93828.13
2022-12-03T19:45:42.302Z,93828.13
2022-12-03T19:47:13.991Z,93827.56
2022-12-03T19:48:45.684Z,93826.28
2022-12-03T19:50:22.720Z,93826.75
2022-12-03T19:51:55.040Z,93825.13
2022-12-03T19:53:27.654Z,93819.00
2022-12-03T19:54:59.620Z,93828.88
2022-12-03T19:56:31.283Z,93832.91
2022-12-03T19:58:02.869Z,93837.75
2022-12-03T19:59:34.462Z,93829.66
2022-12-03T20:01:09.294Z,93830.16
2022-12-03T20:02:41.504Z,93832.25
2022-12-03T20:04:13.423Z,93849.06